Aérodrome :
LOGIN :

S'inscrire | Disclaimer

   EN    FR    IT 

 










Légende :    VFR   VFR Marginal   IFR   IFR Intensif   IFR Très Intensif
Visi : 
Plafond : 
>= 8 km
>= 3000ft
5 à 8 km
1000 à 3000 ft
1500m à 5 km
500 à 1000 ft
800 à 1500m
200 à 500 ft
< 800m
< 200 ft
Symboles :   Orages  Brouillard  Fortes neiges  Fortes précipitations  Vent > 20 kt
SIGMETs :   Divers  Orages  Givrage  Turbulence  Onde Orograph.  Cendres Volcan.






- Altitude de l'aérodrome : 490 ft
- Code IATA : CHQ


LGSA - Ioannis Daskalogiannis

DERNIER METAR :
  • 130650Z 25008KT 9999 FEW018TCU SCT080 14/10 Q1006

METARs EXPIRÉS :
  • 130620Z 24007KT 9999 FEW018TCU SCT030 13/11 Q1006
  • 130550Z 24007KT 9999 FEW018TCU BKN030 BKN080 12/11 Q1005 RERA
  • 130520Z 26006KT 9999 -RA FEW018TCU BKN030 12/11 Q1006
  • 130450Z 26008KT 9999 FEW018TCU SCT030 12/10 Q1005
  • 130420Z 28006KT 9999 FEW018TCU BKN030 11/10 Q1005

TAF TAF LGSA
Valide du 13 à 06h jusqu'au 14 à 06h UTC


130500Z 1306/1406 28015KT 9999 FEW018 SCT030 BKN080
PROB30
TEMPO 1306/1406 5000 RA SCT018 BKN025
PROB30
TEMPO 1306/1406 4000 TSRA SCT010 FEW016CB BKN020
TEMPO 1306/1324 26015G25KT



MET'MAP, la Météo Aéronautique d'un coup d'oeil ! - Copyright ORBIFLY Décembre 2007 - Disclaimer

ORBIFLY MET'MAP TEAM :

Programmation & Développement : Alexandra Zaïnal
Sur une idée originale de : Baudouin d'Aumeries
Assistance à la programmation : Marc-Olivier Méhu
Soutien technique & logistique : Manuel Goepfert

Contact : metmap@orbifly.com




SOURCES & CREDITS :

   NOAA